メインページ
METAR-TAF:

METAR-TAF

空港 :

グアテマラシティ, グアテマラ

ラ・アウロラ国際空港

緯度: 14-35N, 経度: 090-31W, 海抜: 1489m

現時点の気象観測

当レポートは27分前の21:00(UTC)に作成
の風 10kt
気温 24°C
湿度 65%
気圧 1021 hPa
視程10km以上
高度2000ftの雲はほとんどない
高度2400ftの雲はほとんどない, 積乱雲.
高度20000ftの雲は散在している

METAR: MGGT 202100Z 36010KT 9999 FEW020 FEW024CB SCT200 24/17 Q1021 A3015 CB/PCPN SE/SSE/S/SSW

時間: 15:27 (21:27 UTC)

予報

当レポートは4時間27分前の17:00(UTC)に作成
予報は20日の 18時(UTC)から 21日の 18時(UTC)まで有効
北/北東の風 8kt
視程10km以上
高度1800ftの雲はほとんどない
高度9000ftの雲は散在している
確率 30% :
20日の 18時(UTC)から 21日の 01時(UTC)まで一時的に
の風 12kt
視程: 8000m
高度1800ftの千切れ雲あり
霧雨
21日の 01時(UTC)から 21日の 03時(UTC)まで徐々に
高度1600ftの雲は散在している
21日の 10時(UTC)から 21日の 15時(UTC)まで一時的に
高度1400ftの雲はほとんどない
21日の 15時(UTC)から 21日の 17時(UTC)まで徐々に
高度1800ftの雲は散在している

TAF: MGGT 201700Z 2018/2118 03008KT 9999 FEW018 SCT090 TX26/2020Z TN16/2012Z PROB30 TEMPO 2018/2101 36012KT 8000 DZ BKN018 BECMG 2101/2103 SCT016 TEMPO 2110/2115 FEW014 BECMG 2115/2117 SCT018

4,000以上の空港の気象観測と天気予報(METAR報とTAF報)

利用可能な観測所は地図上に黄色い丸と赤い丸で示す。

丸の上にカーソルを重ねると観測所名を参照できる。

次にクリックすると気象観測と天気予報を参照できる。

マップの切り替え:黒色「×」印の緑ボタンをクリックして拡大、「-」印の緑ボタンをクリックして縮小、緑色の三角印をクリックして隣りの地図に切り替え


METAR-TAF: